Time;durP1;ratioP1;P1;durP2;ratioP2;P2;SDS_P1;SDS_P2;PMS_P1;PMS_P2;Temp;Humidity;BMP_temperature;BMP_pressure;BME280_temperature;BME280_humidity;BME280_pressure;Samples;Min_cycle;Max_cycle;Signal;HPM_P1;HPM_P2
2021/12/23 00:00:59;;;;;;;75.92;36.60;;;;;;;-3.72;67.62;101638.45;1446348;89;21390;-82
2021/12/23 00:03:26;;;;;;;70.42;36.38;;;;;;;-3.74;67.58;101637.20;1446226;90;21567;-83
2021/12/23 00:05:54;;;;;;;64.53;33.40;;;;;;;-3.78;67.46;101632.95;1446414;90;22008;-83
2021/12/23 00:08:22;;;;;;;73.28;33.88;;;;;;;-3.76;67.48;101635.08;1443727;90;22490;-81
2021/12/23 00:10:50;;;;;;;59.42;29.42;;;;;;;-3.79;67.39;101631.25;1442932;90;22617;-81
2021/12/23 00:13:17;;;;;;;59.67;31.65;;;;;;;-3.78;67.30;101625.63;1500784;90;22798;-82
2021/12/23 00:23:53;;;;;;;70.05;33.50;;;;;;;-3.90;66.99;101628.84;1421984;91;22373;-80
2021/12/23 00:26:20;;;;;;;71.67;31.85;;;;;;;-3.94;67.03;101626.32;1434912;88;23459;-80
2021/12/23 00:28:47;;;;;;;62.35;31.07;;;;;;;-3.97;67.13;101623.79;1435430;90;21419;-81
2021/12/23 00:31:16;;;;;;;62.13;32.60;;;;;;;-4.00;67.17;101618.67;1416596;91;21555;-82
2021/12/23 00:33:44;;;;;;;73.80;35.38;;;;;;;-4.04;67.40;101619.61;1417973;91;21435;-82
2021/12/23 00:36:13;;;;;;;58.17;30.48;;;;;;;-4.10;67.54;101622.70;1429558;90;22060;-81
2021/12/23 00:38:50;;;;;;;66.22;32.65;;;;;;;-4.10;67.56;101626.59;1440788;90;21561;-82
2021/12/23 00:41:20;;;;;;;66.33;34.53;;;;;;;-4.10;67.54;101626.59;1520877;90;21325;-83
2021/12/23 00:43:47;;;;;;;61.63;33.45;;;;;;;-4.07;67.52;101624.84;1520320;90;21415;-84
2021/12/23 00:46:14;;;;;;;65.78;31.45;;;;;;;-4.10;67.55;101625.30;1475317;90;21497;-82
2021/12/23 00:48:42;;;;;;;60.95;31.25;;;;;;;-4.11;67.46;101623.59;1371926;90;21563;-83
2021/12/23 00:51:09;;;;;;;70.60;34.23;;;;;;;-4.12;67.33;101623.61;1519525;90;21268;-84
2021/12/23 00:53:39;;;;;;;66.57;29.42;;;;;;;-4.14;67.27;101617.19;1428605;90;21946;-83
2021/12/23 00:56:06;;;;;;;60.85;31.87;;;;;;;-4.16;67.23;101621.97;1441387;90;21496;-83
2021/12/23 00:58:34;;;;;;;72.80;34.65;;;;;;;-4.20;67.20;101631.51;1445169;90;21533;-83
2021/12/23 01:01:01;;;;;;;69.60;31.62;;;;;;;-4.25;67.14;101626.84;1438387;90;22568;-83
2021/12/23 01:03:29;;;;;;;63.45;33.65;;;;;;;-4.25;67.18;101628.14;1441614;90;22569;-83
2021/12/23 01:05:57;;;;;;;65.15;33.00;;;;;;;-4.25;67.43;101619.53;1438134;90;21497;-83
2021/12/23 01:08:25;;;;;;;66.00;32.13;;;;;;;-4.28;67.34;101626.05;1441851;90;21334;-84
2021/12/23 01:10:56;;;;;;;68.33;33.63;;;;;;;-4.32;67.19;101621.34;1440808;90;21414;-83
2021/12/23 01:13:29;;;;;;;58.33;32.78;;;;;;;-4.37;67.20;101612.38;1442711;90;22441;-83
2021/12/23 01:16:13;;;;;;;70.45;33.33;;;;;;;-4.39;67.23;101614.57;1440487;90;21413;-82
2021/12/23 01:18:43;;;;;;;62.05;31.05;;;;;;;-4.43;67.55;101618.06;1445434;90;22428;-83
2021/12/23 01:21:16;;;;;;;57.70;29.18;;;;;;;-4.48;67.55;101609.55;1443414;90;21459;-83
2021/12/23 01:23:56;;;;;;;74.20;29.72;;;;;;;-4.47;67.88;101611.24;1439662;90;21511;-83
2021/12/23 01:26:24;;;;;;;57.35;28.90;;;;;;;-4.47;68.01;101608.66;1440932;90;22529;-82
2021/12/23 01:28:56;;;;;;;72.72;34.78;;;;;;;-4.47;68.17;101606.08;1439487;90;21653;-81
2021/12/23 01:31:28;;;;;;;63.35;30.12;;;;;;;-4.43;68.31;101602.14;1438656;90;21385;-82
2021/12/23 01:33:55;;;;;;;64.87;34.67;;;;;;;-4.42;68.45;101602.98;1433490;90;21445;-82
2021/12/23 01:36:24;;;;;;;67.87;34.10;;;;;;;-4.43;68.53;101602.14;1435703;90;21415;-81
2021/12/23 01:38:53;;;;;;;64.12;32.30;;;;;;;-4.44;68.62;101602.15;1437494;90;22279;-81
2021/12/23 01:41:23;;;;;;;57.88;29.50;;;;;;;-4.48;68.69;101599.21;1442508;89;21419;-83
2021/12/23 01:43:53;;;;;;;57.53;30.37;;;;;;;-4.49;69.24;101602.66;1440251;88;21504;-82
2021/12/23 01:46:22;;;;;;;69.25;34.83;;;;;;;-4.49;69.01;101598.77;1418730;91;22005;-84
2021/12/23 01:48:51;;;;;;;65.08;32.58;;;;;;;-4.47;68.89;101600.91;1415536;91;21362;-83
2021/12/23 01:51:18;;;;;;;60.50;30.52;;;;;;;-4.43;68.76;101603.84;1430540;92;21385;-82
2021/12/23 01:53:45;;;;;;;70.22;33.50;;;;;;;-4.38;68.73;101606.78;1423113;92;21481;-83
2021/12/23 01:56:13;;;;;;;71.67;33.45;;;;;;;-4.35;68.73;101593.80;1417344;91;21583;-83
2021/12/23 01:58:41;;;;;;;70.40;33.67;;;;;;;-4.33;68.68;101593.34;1415484;91;21629;-83
2021/12/23 02:01:10;;;;;;;74.82;35.30;;;;;;;-4.29;68.58;101593.30;1394209;92;21614;-83
2021/12/23 02:03:38;;;;;;;73.65;35.83;;;;;;;-4.29;68.34;101590.27;1420013;91;22379;-81
2021/12/23 02:06:06;;;;;;;68.97;32.45;;;;;;;-4.24;68.42;101589.76;1419140;92;21555;-82
2021/12/23 02:08:35;;;;;;;61.50;30.77;;;;;;;-4.21;68.22;101594.88;1423981;92;21536;-82
2021/12/23 02:11:09;;;;;;;64.42;31.17;;;;;;;-4.21;68.37;101587.13;1420732;92;21554;-82
2021/12/23 02:13:37;;;;;;;63.65;31.20;;;;;;;-4.20;68.32;101586.27;1427398;92;21680;-81
2021/12/23 02:16:05;;;;;;;59.93;32.20;;;;;;;-4.17;68.28;101582.33;1417339;92;22707;-81
2021/12/23 02:18:32;;;;;;;57.27;31.10;;;;;;;-4.17;67.99;101585.33;1418876;92;22353;-82
2021/12/23 02:21:00;;;;;;;55.25;30.05;;;;;;;-4.19;67.95;101581.94;1425666;92;21592;-82
2021/12/23 02:23:27;;;;;;;61.42;31.68;;;;;;;-4.19;68.48;101575.03;1421824;92;21557;-81
2021/12/23 02:25:54;;;;;;;52.60;28.40;;;;;;;-4.15;68.18;101573.24;1421254;92;21688;-82
2021/12/23 02:28:22;;;;;;;54.05;30.20;;;;;;;-4.13;68.12;101573.63;1418787;91;22324;-82
2021/12/23 02:30:51;;;;;;;49.45;27.87;;;;;;;-4.11;68.00;101574.91;1417498;91;22853;-82
2021/12/23 02:33:22;;;;;;;53.85;27.93;;;;;;;-4.10;67.96;101573.58;1425895;92;21452;-83
2021/12/23 02:35:52;;;;;;;60.45;31.23;;;;;;;-4.10;68.11;101561.94;1410384;91;22544;-82
2021/12/23 02:38:19;;;;;;;61.80;31.05;;;;;;;-4.10;68.06;101565.82;1419569;91;21502;-83
2021/12/23 02:40:46;;;;;;;51.05;27.32;;;;;;;-4.06;68.18;101564.47;1422239;92;21415;-82
2021/12/23 02:43:22;;;;;;;60.60;28.70;;;;;;;-4.03;67.96;101554.08;1419617;92;21584;-83
2021/12/23 02:45:53;;;;;;;60.17;29.65;;;;;;;-4.00;67.94;101556.60;1414945;91;21606;-83
2021/12/23 02:48:23;;;;;;;;;;;;;;;-3.99;67.86;101555.30;1429416;92;22524;-83
2021/12/23 02:50:54;;;;;;;61.15;30.80;;;;;;;-4.03;68.34;101552.78;1427644;91;20437;-83
2021/12/23 02:53:23;;;;;;;58.35;29.92;;;;;;;-4.04;68.20;101551.09;1434328;91;21339;-83
2021/12/23 02:55:57;;;;;;;61.98;31.23;;;;;;;-4.04;68.45;101549.80;1424361;91;21397;-84
2021/12/23 02:58:24;;;;;;;56.33;29.95;;;;;;;-4.06;68.70;101543.78;1421305;91;22470;-84
2021/12/23 03:00:54;;;;;;;54.15;28.92;;;;;;;-4.07;68.64;101543.39;1433528;91;21420;-85
2021/12/23 03:03:21;;;;;;;69.92;34.88;;;;;;;-4.07;68.96;101552.44;1423592;91;22349;-83
2021/12/23 03:05:52;;;;;;;71.00;35.48;;;;;;;-4.05;68.88;101542.48;1428037;91;21366;-84
2021/12/23 03:08:34;;;;;;;67.67;33.10;;;;;;;-4.04;69.14;101544.63;1426518;91;21411;-84
2021/12/23 03:11:03;;;;;;;66.70;33.73;;;;;;;-4.03;69.08;101548.90;1425227;91;22616;-84
2021/12/23 03:13:31;;;;;;;61.83;31.23;;;;;;;-4.04;69.24;101545.47;1429207;91;21503;-84
2021/12/23 03:15:59;;;;;;;60.40;28.90;;;;;;;-4.02;69.08;101550.62;1426229;91;21518;-84
2021/12/23 03:18:27;;;;;;;58.28;28.67;;;;;;;-4.02;69.09;101542.87;1427191;91;22261;-84
2021/12/23 03:20:56;;;;;;;63.23;30.30;;;;;;;-3.95;68.98;101545.74;1425078;91;21523;-85
2021/12/23 03:23:24;;;;;;;57.30;28.75;;;;;;;-3.93;68.88;101540.95;1429647;91;22497;-85
2021/12/23 03:25:51;;;;;;;59.15;29.40;;;;;;;-3.91;68.93;101538.36;1451620;90;22518;-85
2021/12/23 03:28:19;;;;;;;59.90;27.87;;;;;;;-3.87;68.76;101541.28;1449816;90;21572;-83
2021/12/23 03:30:47;;;;;;;52.60;27.30;;;;;;;-3.84;68.73;101533.47;1453167;89;22480;-82
2021/12/23 03:33:15;;;;;;;55.65;27.67;;;;;;;-3.83;68.60;101528.70;1449156;90;21535;-82
2021/12/23 03:35:42;;;;;;;54.83;27.05;;;;;;;-3.83;68.38;101527.84;1446288;90;21550;-82
2021/12/23 03:38:09;;;;;;;51.75;26.57;;;;;;;-3.82;68.26;101532.16;1446322;89;21410;-83
2021/12/23 03:40:37;;;;;;;55.48;27.02;;;;;;;-3.79;68.60;101524.34;1449776;90;21328;-83
2021/12/23 03:43:05;;;;;;;57.43;28.12;;;;;;;-3.76;68.48;101525.57;1459833;90;21439;-83
2021/12/23 03:45:32;;;;;;;52.05;25.48;;;;;;;-3.75;68.35;101525.52;1454509;89;21358;-83
2021/12/23 03:47:59;;;;;;;50.45;25.52;;;;;;;-3.74;68.15;101519.91;1458347;90;23007;-83
2021/12/23 03:50:27;;;;;;;55.45;25.30;;;;;;;-3.72;68.28;101520.29;1447521;90;23043;-82
2021/12/23 03:52:54;;;;;;;46.55;26.25;;;;;;;-3.69;68.17;101523.27;1441494;90;21478;-83
2021/12/23 03:55:21;;;;;;;48.20;24.95;;;;;;;-3.68;67.80;101521.10;1440302;90;21393;-83
2021/12/23 03:57:48;;;;;;;48.40;25.72;;;;;;;-3.68;67.85;101519.36;1441889;90;21416;-83
2021/12/23 04:00:19;;;;;;;47.62;24.35;;;;;;;-3.63;67.73;101520.09;1441359;90;21403;-83
2021/12/23 04:02:47;;;;;;;52.83;26.77;;;;;;;-3.59;67.56;101517.48;1440776;90;21534;-82
2021/12/23 04:05:17;;;;;;;45.28;23.83;;;;;;;-3.60;67.24;101517.05;1432228;89;22379;-82
2021/12/23 04:07:45;;;;;;;41.20;22.75;;;;;;;-3.61;67.05;101512.32;1447169;90;21546;-81
2021/12/23 04:10:16;;;;;;;48.30;23.77;;;;;;;-3.63;67.12;101511.04;1435952;90;22508;-81
2021/12/23 04:12:45;;;;;;;41.77;22.43;;;;;;;-3.60;67.14;101509.28;1419344;92;21525;-81
2021/12/23 04:15:13;;;;;;;43.30;23.12;;;;;;;-3.64;67.04;101504.17;1420116;92;22550;-81
2021/12/23 04:17:40;;;;;;;41.98;21.35;;;;;;;-3.66;66.67;101502.05;1412783;92;21429;-81
2021/12/23 04:20:18;;;;;;;37.63;20.55;;;;;;;-3.71;66.28;101499.14;1416927;92;21333;-81
2021/12/23 04:22:47;;;;;;;40.58;22.17;;;;;;;-3.77;66.05;101497.56;1417245;92;22322;-81
2021/12/23 04:25:17;;;;;;;39.73;20.65;;;;;;;-3.85;65.86;101498.14;1412825;92;21385;-81
2021/12/23 04:27:47;;;;;;;36.58;19.52;;;;;;;-3.93;65.67;101495.70;1428305;90;21504;-80
2021/12/23 04:30:17;;;;;;;39.03;20.00;;;;;;;-3.97;65.95;101499.65;1440300;90;21503;-81
2021/12/23 04:32:45;;;;;;;44.90;20.85;;;;;;;-3.99;65.76;101500.14;1437114;90;21245;-81
2021/12/23 04:35:14;;;;;;;41.55;19.80;;;;;;;-4.06;65.81;101492.91;1443882;90;21362;-82
2021/12/23 04:37:42;;;;;;;39.20;20.48;;;;;;;-4.06;65.94;101495.95;1439759;90;21437;-82
2021/12/23 04:40:11;;;;;;;43.68;20.82;;;;;;;-4.09;65.67;101488.65;1447182;90;21325;-81
2021/12/23 04:42:40;;;;;;;39.70;21.30;;;;;;;-4.12;65.65;101491.74;1438864;90;21495;-82
2021/12/23 04:45:09;;;;;;;36.13;18.73;;;;;;;-4.19;65.48;101493.59;1444172;90;22464;-82
2021/12/23 04:47:38;;;;;;;36.65;19.35;;;;;;;-4.21;65.57;101487.59;1443260;90;21414;-83
2021/12/23 04:50:09;;;;;;;34.20;18.00;;;;;;;-4.22;65.83;101484.61;1435318;88;21502;-83
2021/12/23 04:52:38;;;;;;;39.15;18.35;;;;;;;-4.21;65.46;101488.88;1450945;89;22434;-83
2021/12/23 04:55:08;;;;;;;37.40;18.90;;;;;;;-4.20;65.58;101481.56;1462961;89;21414;-83
2021/12/23 04:57:35;;;;;;;34.67;17.35;;;;;;;-4.20;65.22;101483.27;1457901;90;21577;-82
2021/12/23 05:00:13;;;;;;;35.28;18.57;;;;;;;-4.16;65.45;101483.64;1455872;89;21570;-83
2021/12/23 05:02:40;;;;;;;35.40;17.15;;;;;;;-4.14;65.26;101480.16;1451535;90;21384;-82
2021/12/23 05:05:09;;;;;;;36.20;18.85;;;;;;;-4.10;65.36;101479.20;1446676;90;21332;-81
2021/12/23 05:07:37;;;;;;;33.42;18.12;;;;;;;-4.04;65.37;101474.36;1450801;89;21438;-81
2021/12/23 05:10:10;;;;;;;36.10;18.27;;;;;;;-4.01;65.26;101479.91;1446804;90;21377;-82
2021/12/23 05:12:43;;;;;;;37.88;17.67;;;;;;;-3.98;65.32;101477.27;1451575;89;21509;-82
2021/12/23 05:15:09;;;;;;;33.85;15.95;;;;;;;-3.96;65.27;101474.22;1463777;89;21430;-82
2021/12/23 05:17:36;;;;;;;37.65;17.50;;;;;;;-3.95;65.17;101474.63;1444572;90;21399;-83
2021/12/23 05:20:06;;;;;;;35.50;17.82;;;;;;;-3.95;65.25;101471.59;1453779;90;21362;-82
2021/12/23 05:22:34;;;;;;;30.32;17.17;;;;;;;-3.96;65.33;101468.60;1449820;89;21369;-82
2021/12/23 05:25:02;;;;;;;39.27;19.87;;;;;;;-3.94;65.36;101471.14;1456897;89;21340;-83
2021/12/23 05:27:30;;;;;;;48.92;25.72;;;;;;;-3.95;65.52;101464.27;1452140;90;21599;-83
2021/12/23 05:29:57;;;;;;;55.43;27.35;;;;;;;-3.92;65.56;101461.63;1454358;89;21532;-82
2021/12/23 05:32:24;;;;;;;69.42;34.13;;;;;;;-3.91;65.34;101460.77;1487498;87;21403;-82
2021/12/23 05:34:52;;;;;;;52.40;26.82;;;;;;;-3.91;65.27;101465.94;1482920;87;21395;-82
2021/12/23 05:37:19;;;;;;;36.40;19.12;;;;;;;-3.92;65.16;101464.21;1484465;87;22408;-82
2021/12/23 05:39:46;;;;;;;50.45;24.67;;;;;;;-3.97;64.83;101464.73;1487877;87;23250;-83
2021/12/23 05:42:13;;;;;;;39.83;21.20;;;;;;;-4.02;64.80;101461.41;1482321;87;21380;-83
2021/12/23 05:44:40;;;;;;;32.55;16.87;;;;;;;-4.02;64.80;101466.59;1479837;87;21395;-82
2021/12/23 05:47:07;;;;;;;30.32;17.07;;;;;;;-4.06;64.51;101467.06;1486612;87;21522;-84
2021/12/23 05:49:34;;;;;;;32.08;15.85;;;;;;;-4.11;64.36;101466.32;1479725;87;21646;-84
2021/12/23 05:52:02;;;;;;;30.75;16.35;;;;;;;-4.17;64.30;101464.70;1480383;87;21462;-84
2021/12/23 05:54:30;;;;;;;27.10;14.80;;;;;;;-4.14;64.61;101463.80;1484406;87;22505;-84
2021/12/23 05:57:01;;;;;;;24.80;15.35;;;;;;;-4.15;64.45;101462.91;1478707;87;22357;-84
2021/12/23 05:59:26;;;;;;;30.82;14.35;;;;;;;-4.17;64.19;101471.58;1478023;87;21558;-86
2021/12/23 06:01:53;;;;;;;27.13;15.10;;;;;;;-4.21;64.18;101469.50;1483091;87;21388;-84
2021/12/23 06:04:20;;;;;;;26.65;15.28;;;;;;;-4.21;64.23;101469.94;1488109;87;21285;-82
2021/12/23 06:06:47;;;;;;;27.55;13.78;;;;;;;-4.24;64.27;101472.14;1487225;87;21440;-84
2021/12/23 06:09:14;;;;;;;25.50;13.32;;;;;;;-4.26;64.03;101475.19;1484335;87;22357;-82
2021/12/23 06:11:42;;;;;;;29.35;15.03;;;;;;;-4.33;63.91;101481.36;1483478;87;21403;-82
2021/12/23 06:14:09;;;;;;;24.72;12.25;;;;;;;-4.35;64.00;101479.23;1477588;87;21417;-82
2021/12/23 06:16:36;;;;;;;27.67;14.23;;;;;;;-4.35;64.30;101480.52;1486264;87;21389;-83
2021/12/23 06:19:03;;;;;;;26.25;13.22;;;;;;;-4.38;64.26;101483.16;1487882;87;21366;-82
2021/12/23 06:21:32;;;;;;;28.55;13.93;;;;;;;-4.39;64.14;101482.31;1492439;87;21366;-83
2021/12/23 06:24:02;;;;;;;29.35;14.40;;;;;;;-4.41;64.33;101481.92;1481819;87;22511;-82
2021/12/23 06:26:28;;;;;;;27.07;13.88;;;;;;;-4.48;64.86;101483.77;1485102;87;22356;-83
2021/12/23 06:28:56;;;;;;;23.55;12.90;;;;;;;-4.58;65.14;101486.94;1483251;87;22283;-82
2021/12/23 06:31:23;;;;;;;27.22;12.98;;;;;;;-4.63;65.49;101488.77;1495516;87;21381;-83
2021/12/23 06:33:51;;;;;;;24.82;13.65;;;;;;;-4.64;65.52;101492.20;1480887;87;21381;-82
2021/12/23 06:36:18;;;;;;;31.50;14.38;;;;;;;-4.59;65.71;101496.86;1479991;87;21411;-83
2021/12/23 06:38:46;;;;;;;42.45;15.65;;;;;;;-4.52;65.87;101500.64;1474469;86;22420;-83
2021/12/23 06:41:15;;;;;;;27.90;13.48;;;;;;;-4.50;65.70;101503.61;1467101;86;21489;-83
2021/12/23 06:43:42;;;;;;;32.60;15.38;;;;;;;-4.48;65.62;101494.55;1458084;88;21421;-82
2021/12/23 06:46:09;;;;;;;47.62;24.15;;;;;;;-4.46;65.51;101489.78;1454816;89;22337;-82
2021/12/23 06:48:36;;;;;;;39.70;19.82;;;;;;;-4.43;65.34;101491.02;1454677;89;22368;-83
2021/12/23 06:51:05;;;;;;;40.63;21.05;;;;;;;-4.43;65.25;101495.30;1452445;89;21414;-82
2021/12/23 06:53:33;;;;;;;38.65;18.48;;;;;;;-4.36;65.35;101494.34;1452353;89;21882;-83
2021/12/23 06:56:01;;;;;;;33.42;17.17;;;;;;;-4.32;65.35;101490.80;1454816;89;21374;-82
2021/12/23 06:58:30;;;;;;;35.45;18.73;;;;;;;-4.31;65.15;101488.66;1458962;89;21614;-82
2021/12/23 07:00:58;;;;;;;37.40;19.00;;;;;;;-4.29;65.07;101487.31;1453932;89;21414;-82
2021/12/23 07:03:34;;;;;;;41.48;18.92;;;;;;;-4.29;64.96;101495.07;1451770;89;21385;-82
2021/12/23 07:06:03;;;;;;;42.05;18.92;;;;;;;-4.30;64.83;101491.64;1438078;89;23397;-82
2021/12/23 07:08:28;;;;;;;32.17;17.80;;;;;;;-4.25;64.84;101496.30;1456326;88;21577;-83
2021/12/23 07:10:55;;;;;;;30.60;17.42;;;;;;;-4.23;64.68;101492.38;1448324;89;21580;-82
2021/12/23 07:13:23;;;;;;;38.65;18.12;;;;;;;-4.23;64.83;101491.08;1447344;89;21399;-82
2021/12/23 07:15:50;;;;;;;41.20;21.30;;;;;;;-4.22;65.12;101488.48;1451234;89;21716;-83
2021/12/23 07:18:17;;;;;;;45.40;22.15;;;;;;;-4.20;65.10;101494.48;1449423;89;22375;-83
2021/12/23 07:20:44;;;;;;;44.23;20.92;;;;;;;-4.14;64.99;101487.91;1455965;89;21451;-83
2021/12/23 07:23:12;;;;;;;42.03;22.65;;;;;;;-4.10;64.71;101486.95;1457504;89;21369;-83
2021/12/23 07:25:39;;;;;;;38.83;21.33;;;;;;;-4.09;64.38;101481.34;1451232;89;21355;-83
2021/12/23 07:28:06;;;;;;;36.95;20.20;;;;;;;-4.09;64.69;101480.89;1456506;89;21384;-82
2021/12/23 07:30:33;;;;;;;45.70;24.18;;;;;;;-4.07;64.79;101474.86;1464404;89;22324;-84
2021/12/23 07:33:00;;;;;;;44.38;20.10;;;;;;;-4.06;64.79;101468.35;1453430;89;21480;-84
2021/12/23 07:35:27;;;;;;;43.45;22.93;;;;;;;-4.00;64.86;101466.97;1458664;89;21334;-84
2021/12/23 07:37:57;;;;;;;44.93;24.47;;;;;;;-3.92;64.73;101462.92;1446018;89;21525;-84
2021/12/23 07:40:24;;;;;;;50.55;22.90;;;;;;;-3.85;64.52;101470.98;1456180;89;21613;-84
2021/12/23 07:42:56;;;;;;;42.15;21.60;;;;;;;-3.78;64.01;101462.20;1453762;89;21576;-85
2021/12/23 07:45:27;;;;;;;35.50;19.02;;;;;;;-3.70;64.08;101455.59;1448608;89;21525;-84
2021/12/23 07:47:55;;;;;;;37.50;19.27;;;;;;;-3.63;63.42;101452.82;1459001;89;21422;-85
2021/12/23 07:50:23;;;;;;;32.10;17.90;;;;;;;-3.56;63.43;101450.13;1452407;89;21421;-85
2021/12/23 07:52:50;;;;;;;31.10;16.35;;;;;;;-3.49;63.23;101454.28;1453556;88;23061;-84
2021/12/23 07:55:18;;;;;;;41.70;20.77;;;;;;;-3.40;62.71;101460.55;1458111;89;21325;-84
2021/12/23 07:57:45;;;;;;;43.85;23.73;;;;;;;-3.31;62.69;101462.95;1452742;89;21370;-84
2021/12/23 08:00:14;;;;;;;42.98;22.85;;;;;;;-3.24;62.22;101469.68;1457261;89;21340;-84
2021/12/23 08:02:43;;;;;;;32.25;18.20;;;;;;;-3.12;62.25;101459.94;1457574;89;21392;-85
2021/12/23 08:05:10;;;;;;;27.60;13.13;;;;;;;-2.97;62.20;101467.34;1455089;89;21370;-84
2021/12/23 08:07:37;;;;;;;23.95;13.20;;;;;;;-2.91;60.24;101471.08;1454166;89;21436;-84
2021/12/23 08:10:07;;;;;;;25.92;14.30;;;;;;;-2.96;60.32;101471.66;1451865;89;21421;-83
2021/12/23 08:12:34;;;;;;;29.00;11.55;;;;;;;-2.93;60.63;101462.52;1449668;89;21495;-83
2021/12/23 08:15:02;;;;;;;36.08;17.48;;;;;;;-2.92;60.26;101462.06;1453731;89;21554;-84
2021/12/23 08:17:29;;;;;;;31.23;14.28;;;;;;;-2.90;59.79;101454.67;1453249;89;21562;-83
2021/12/23 08:19:56;;;;;;;30.12;15.68;;;;;;;-2.95;59.17;101444.85;1456701;89;21473;-83
2021/12/23 08:22:23;;;;;;;35.50;16.40;;;;;;;-2.91;60.10;101441.28;1454409;89;22301;-84
2021/12/23 08:24:50;;;;;;;21.95;11.97;;;;;;;-2.90;59.00;101438.28;1447610;87;21358;-83
2021/12/23 08:27:17;;;;;;;21.33;12.05;;;;;;;-2.95;58.11;101439.67;1454500;86;21444;-82
2021/12/23 08:29:44;;;;;;;18.77;9.95;;;;;;;-3.01;59.01;101435.48;1467322;88;21362;-82
2021/12/23 08:32:12;;;;;;;40.15;11.05;;;;;;;-2.95;58.13;101435.78;1457231;89;21392;-91
2021/12/23 08:34:39;;;;;;;14.53;7.85;;;;;;;-2.96;58.15;101438.83;1456801;88;21351;-92
2021/12/23 08:37:11;;;;;;;27.20;14.00;;;;;;;-2.96;57.46;101434.09;1476612;87;21360;-94
2021/12/23 08:39:43;;;;;;;31.25;15.63;;;;;;;-2.93;58.07;101437.91;1482081;87;21438;-92
2021/12/23 08:42:11;;;;;;;31.65;17.82;;;;;;;-2.88;56.88;101429.55;1452353;89;21333;-91
2021/12/23 08:44:40;;;;;;;21.45;12.30;;;;;;;-2.79;57.25;101438.42;1472631;88;21400;-91
2021/12/23 08:47:09;;;;;;;19.67;9.73;;;;;;;-2.77;55.91;101434.03;1471157;89;21429;-90
2021/12/23 08:49:37;;;;;;;17.10;9.83;;;;;;;-2.67;55.78;101440.30;1472933;89;21312;-91
2021/12/23 08:52:05;;;;;;;18.55;8.75;;;;;;;-2.63;55.84;101441.91;1451248;88;21626;-92
2021/12/23 08:54:32;;;;;;;21.62;9.18;;;;;;;-2.52;55.91;101436.86;1455863;89;21354;-92
2021/12/23 08:57:00;;;;;;;15.13;8.90;;;;;;;-2.44;56.22;101427.59;1454452;86;21459;-91
2021/12/23 08:59:33;;;;;;;14.87;8.08;;;;;;;-2.44;55.20;101423.70;1456522;89;21348;-91
2021/12/23 09:02:01;;;;;;;17.50;9.25;;;;;;;-2.39;54.45;101415.79;1457389;89;22488;-91
2021/12/23 09:04:28;;;;;;;17.12;8.10;;;;;;;-2.33;55.15;101415.20;1456091;89;22394;-90
2021/12/23 09:07:02;;;;;;;14.03;7.83;;;;;;;-2.28;54.59;101408.12;1456655;86;21355;-90
2021/12/23 09:09:32;;;;;;;17.35;8.80;;;;;;;-2.26;54.49;101406.80;1448760;89;21566;-91
2021/12/23 09:12:00;;;;;;;17.00;8.15;;;;;;;-2.19;53.30;101399.23;1477628;88;22535;-90
2021/12/23 09:14:28;;;;;;;14.03;7.60;;;;;;;-2.12;54.51;101399.94;1490778;87;21558;-90
2021/12/23 09:16:55;;;;;;;16.37;8.05;;;;;;;-2.01;53.94;101402.21;1477247;87;21617;-91
2021/12/23 09:19:23;;;;;;;16.57;8.45;;;;;;;-1.98;54.05;101389.18;1458037;88;22295;-90
2021/12/23 09:21:50;;;;;;;18.85;10.05;;;;;;;-1.88;53.65;101384.95;1443822;89;22467;-91
2021/12/23 09:24:19;;;;;;;18.42;9.68;;;;;;;-1.83;53.50;101377.89;1447483;89;21510;-90
2021/12/23 09:27:10;;;;;;;18.55;9.33;;;;;;;-1.71;53.52;101371.94;1458002;88;21540;-90
2021/12/23 09:34:54;;;;;;;13.63;7.03;;;;;;;-1.50;51.49;101351.80;1452571;88;21525;-90
2021/12/23 09:37:24;;;;;;;30.52;16.10;;;;;;;-1.57;51.15;101347.70;1441729;89;22608;-89
2021/12/23 09:39:55;;;;;;;68.75;30.30;;;;;;;-1.58;51.44;101340.82;1478253;88;21351;-90
2021/12/23 09:42:33;;;;;;;28.30;12.98;;;;;;;-1.45;52.09;101340.81;1474701;87;21396;-90
2021/12/23 09:45:05;;;;;;;35.80;14.73;;;;;;;-1.28;52.04;101333.78;1485014;87;21374;-89
2021/12/23 09:47:35;;;;;;;32.27;15.77;;;;;;;-0.80;50.19;101332.22;1440886;89;21412;-86
2021/12/23 09:50:08;;;;;;;19.77;10.03;;;;;;;0.07;50.12;101328.19;1434940;89;21776;-87
2021/12/23 09:52:37;;;;;;;17.10;9.30;;;;;;;0.71;47.41;101320.42;1438631;89;21756;-86
2021/12/23 09:55:06;;;;;;;14.37;8.37;;;;;;;1.26;46.66;101319.41;1440077;89;21865;-87
2021/12/23 09:57:33;;;;;;;15.70;8.30;;;;;;;1.63;46.06;101313.88;1474701;87;21620;-87
2021/12/23 10:00:02;;;;;;;17.57;8.60;;;;;;;1.78;43.62;101313.22;1481509;87;21810;-86
2021/12/23 10:02:29;;;;;;;19.17;8.90;;;;;;;2.09;45.37;101301.34;1487455;87;21883;-86
2021/12/23 10:04:56;;;;;;;19.00;10.53;;;;;;;2.28;43.27;101297.87;1481963;88;23088;-87
2021/12/23 10:07:25;;;;;;;16.87;10.47;;;;;;;2.41;42.35;101296.34;1480436;88;22204;-88
2021/12/23 10:10:11;;;;;;;14.10;9.87;;;;;;;2.74;43.88;101295.64;1482062;88;22149;-87
2021/12/23 10:38:47;;;;;;;19.57;10.77;;;;;;;2.81;40.98;101244.72;1466888;87;22357;-87
2021/12/23 10:41:26;;;;;;;20.83;11.10;;;;;;;2.77;40.09;101241.89;1482827;87;21547;-88
2021/12/23 10:44:01;;;;;;;16.10;10.10;;;;;;;2.80;40.55;101236.04;1469040;86;22514;-89
2021/12/23 10:46:34;;;;;;;19.30;10.93;;;;;;;2.70;39.93;101231.75;1457785;87;21410;-87
2021/12/23 10:52:06;;;;;;;17.05;9.58;;;;;;;2.86;41.66;101216.58;1477034;87;21492;-87
2021/12/23 11:00:32;;;;;;;20.77;8.70;;;;;;;3.44;41.45;101207.44;1444860;89;21495;-87
2021/12/23 11:03:27;;;;;;;18.63;9.87;;;;;;;3.41;40.83;101215.45;1441460;89;21529;-86
2021/12/23 11:37:05;;;;;;;18.53;11.33;;;;;;;1.86;42.89;101140.55;1431556;89;22681;-92
2021/12/23 11:39:46;;;;;;;15.63;9.50;;;;;;;1.78;43.13;101137.03;1411208;91;21693;-91
2021/12/23 11:44:31;;;;;;;19.47;10.30;;;;;;;1.79;43.23;101138.72;1427693;90;21737;-90
2021/12/23 11:47:05;;;;;;;15.60;8.03;;;;;;;1.69;42.32;101137.45;1415812;90;22738;-90
2021/12/23 11:49:29;;;;;;;10.88;6.92;;;;;;;1.70;42.61;101137.86;1423637;90;21899;-90
2021/12/23 11:51:57;;;;;;;11.60;6.40;;;;;;;1.83;41.88;101134.19;1428487;90;21500;-90
2021/12/23 11:54:34;;;;;;;12.23;5.93;;;;;;;1.89;41.39;101136.95;1435510;90;21705;-92
2021/12/23 11:57:10;;;;;;;12.00;6.90;;;;;;;2.10;41.15;101132.44;1449964;89;21799;-91
2021/12/23 11:59:41;;;;;;;12.17;7.50;;;;;;;2.61;41.22;101137.27;1444142;89;22895;-92
2021/12/23 12:02:18;;;;;;;11.53;7.60;;;;;;;2.61;41.22;101137.27;1452620;89;21923;-94
2021/12/23 12:04:47;;;;;;;11.70;7.03;;;;;;;2.84;41.36;101135.59;1458264;89;21538;-90
2021/12/23 12:07:22;;;;;;;13.43;7.13;;;;;;;3.02;39.47;101118.55;1461234;89;22050;-90
2021/12/23 12:10:09;;;;;;;15.13;6.73;;;;;;;3.20;40.88;101120.66;1466419;89;22117;-89
2021/12/23 12:13:01;;;;;;;11.33;7.67;;;;;;;3.26;39.00;101113.31;1455662;89;22582;-92
2021/12/23 12:15:47;;;;;;;14.60;7.30;;;;;;;3.16;38.74;101115.59;1461273;89;24033;-91
2021/12/23 12:18:18;;;;;;;15.93;7.67;;;;;;;2.90;39.38;101106.51;1463502;89;21436;-91
2021/12/23 12:20:50;;;;;;;13.40;7.83;;;;;;;2.74;39.82;101098.28;1465003;89;23680;-90
2021/12/23 12:23:44;;;;;;;13.65;8.00;;;;;;;2.74;39.82;101098.28;1455845;89;21473;-90
2021/12/23 12:26:12;;;;;;;12.37;7.00;;;;;;;2.72;39.53;101095.73;1459421;89;22622;-88
2021/12/23 12:28:46;;;;;;;16.67;9.00;;;;;;;2.56;40.06;101093.09;1501615;89;22058;-89
2021/12/23 12:31:26;;;;;;;15.83;8.33;;;;;;;2.25;39.60;101163.03;1458518;89;23050;-87
2021/12/23 12:34:10;;;;;;;14.07;7.90;;;;;;;1.81;39.87;101090.34;1461358;89;22125;-84
2021/12/23 12:36:49;;;;;;;16.27;8.20;;;;;;;1.40;41.35;101088.43;1458947;89;22735;-85
2021/12/23 12:39:27;;;;;;;14.40;8.77;;;;;;;1.29;41.40;101088.92;1462902;89;22752;-88
2021/12/23 12:42:02;;;;;;;17.77;9.07;;;;;;;1.06;41.91;101076.96;1461172;89;21676;-83
2021/12/23 12:44:36;;;;;;;16.73;9.30;;;;;;;0.92;42.84;101071.53;1455439;89;21648;-86